createdAt,value
2023-01-09T00:00:55.753Z,19.70
2023-01-09T00:03:22.629Z,19.70
2023-01-09T00:05:49.533Z,19.70
2023-01-09T00:08:16.298Z,19.70
2023-01-09T00:10:43.037Z,19.70
2023-01-09T00:13:13.793Z,19.70
2023-01-09T00:15:41.723Z,19.70
2023-01-09T00:18:08.624Z,19.80
2023-01-09T00:20:36.041Z,19.80
2023-01-09T00:23:03.481Z,19.70
2023-01-09T00:25:30.286Z,19.80
2023-01-09T00:27:57.100Z,19.80
2023-01-09T00:30:23.906Z,19.80
2023-01-09T00:32:50.667Z,19.80
2023-01-09T00:35:18.710Z,19.80
2023-01-09T00:37:45.749Z,19.80
2023-01-09T00:40:15.024Z,19.80
2023-01-09T00:42:44.435Z,19.80
2023-01-09T00:45:16.171Z,19.80
2023-01-09T00:47:50.093Z,19.80
2023-01-09T00:50:24.459Z,19.80
2023-01-09T00:52:54.327Z,19.80
2023-01-09T00:55:21.521Z,19.90
2023-01-09T00:57:48.733Z,19.90
2023-01-09T01:00:16.362Z,19.90
2023-01-09T01:02:43.235Z,19.80
2023-01-09T01:05:28.518Z,19.80
2023-01-09T01:07:55.277Z,19.90
2023-01-09T01:10:24.588Z,19.90
2023-01-09T01:12:51.787Z,19.90
2023-01-09T01:15:19.579Z,19.80
2023-01-09T01:17:46.776Z,19.90
2023-01-09T01:20:16.954Z,19.90
2023-01-09T01:22:44.247Z,19.90
2023-01-09T01:25:13.233Z,19.90
2023-01-09T01:27:40.922Z,19.90
2023-01-09T01:30:09.493Z,19.90
2023-01-09T01:32:36.643Z,19.90
2023-01-09T01:35:04.151Z,19.90
2023-01-09T01:37:31.256Z,19.90
2023-01-09T01:39:58.075Z,19.90
2023-01-09T01:42:25.299Z,19.90
2023-01-09T01:45:08.643Z,19.90
2023-01-09T01:47:38.406Z,19.90
2023-01-09T01:50:11.905Z,19.90
2023-01-09T01:52:38.964Z,19.90
2023-01-09T01:55:09.601Z,19.90
2023-01-09T01:57:40.282Z,19.90
2023-01-09T02:00:08.229Z,19.90
2023-01-09T02:02:35.102Z,19.90
2023-01-09T02:05:02.750Z,19.90
2023-01-09T02:07:30.119Z,19.90
2023-01-09T02:09:57.719Z,19.90
2023-01-09T02:12:26.759Z,19.80
2023-01-09T02:15:08.969Z,19.80
2023-01-09T02:17:35.749Z,19.80
2023-01-09T02:20:25.407Z,19.70
2023-01-09T02:23:07.068Z,19.70
2023-01-09T02:25:39.852Z,19.80
2023-01-09T02:28:31.118Z,19.80
2023-01-09T02:31:04.090Z,19.80
2023-01-09T02:33:45.725Z,19.80
2023-01-09T02:36:24.778Z,19.90
2023-01-09T02:39:18.584Z,20.00
2023-01-09T02:42:02.065Z,20.10
2023-01-09T02:44:30.823Z,20.20
2023-01-09T02:47:29.351Z,20.20
2023-01-09T02:50:02.351Z,20.20
2023-01-09T02:52:51.617Z,20.30
2023-01-09T02:55:43.648Z,20.40
2023-01-09T02:58:21.914Z,20.40
2023-01-09T03:01:00.701Z,20.40
2023-01-09T03:03:56.251Z,20.40
2023-01-09T03:06:38.108Z,20.40
2023-01-09T03:09:17.580Z,20.40
2023-01-09T03:11:51.903Z,20.40
2023-01-09T03:14:22.669Z,20.40
2023-01-09T03:16:56.648Z,20.40
2023-01-09T03:19:27.001Z,20.40
2023-01-09T03:21:55.700Z,20.50
2023-01-09T03:24:22.505Z,20.50
2023-01-09T03:26:49.507Z,20.60
2023-01-09T03:29:16.245Z,20.60
2023-01-09T03:31:43.027Z,20.70
2023-01-09T03:34:10.232Z,20.70
2023-01-09T03:36:37.164Z,20.70
2023-01-09T03:39:04.145Z,20.70
2023-01-09T03:41:30.937Z,20.70
2023-01-09T03:43:57.687Z,20.70
2023-01-09T03:46:24.474Z,20.70
2023-01-09T03:48:51.270Z,20.70
2023-01-09T03:51:18.064Z,20.70
2023-01-09T03:53:44.829Z,20.70
2023-01-09T03:56:11.606Z,20.70
2023-01-09T03:58:38.357Z,20.70
2023-01-09T04:01:09.510Z,20.70
2023-01-09T04:03:36.498Z,20.70
2023-01-09T04:06:03.487Z,20.70
2023-01-09T04:08:30.834Z,20.70
2023-01-09T04:10:57.674Z,20.80
2023-01-09T04:13:24.468Z,20.80
2023-01-09T04:15:51.351Z,20.80
2023-01-09T04:18:18.143Z,20.80
2023-01-09T04:20:47.562Z,20.80
2023-01-09T04:23:14.593Z,20.80
2023-01-09T04:25:41.462Z,20.80
2023-01-09T04:28:08.201Z,20.70
2023-01-09T04:30:35.232Z,20.70
2023-01-09T04:33:02.020Z,20.60
2023-01-09T04:35:29.038Z,20.50
2023-01-09T04:37:55.990Z,20.40
2023-01-09T04:40:22.786Z,20.40
2023-01-09T04:42:49.651Z,20.30
2023-01-09T04:45:17.252Z,20.30
2023-01-09T04:47:44.770Z,20.30
2023-01-09T04:50:12.810Z,20.20
2023-01-09T04:52:39.689Z,20.30
2023-01-09T04:55:07.977Z,20.30
2023-01-09T04:57:35.703Z,20.30
2023-01-09T05:00:03.474Z,20.30
2023-01-09T05:02:30.621Z,20.40
2023-01-09T05:04:57.653Z,20.40
2023-01-09T05:07:24.567Z,20.40
2023-01-09T05:09:51.428Z,20.40
2023-01-09T05:12:18.255Z,20.40
2023-01-09T05:14:45.058Z,20.40
2023-01-09T05:17:11.859Z,20.40
2023-01-09T05:19:39.330Z,20.40
2023-01-09T05:22:06.110Z,20.30
2023-01-09T05:24:32.929Z,20.30
2023-01-09T05:27:02.585Z,20.30
2023-01-09T05:29:29.456Z,20.30
2023-01-09T05:31:56.355Z,20.30
2023-01-09T05:34:23.861Z,20.30
2023-01-09T05:36:51.327Z,20.30
2023-01-09T05:39:18.230Z,20.30
2023-01-09T05:41:45.033Z,20.30
2023-01-09T05:44:12.100Z,20.30
2023-01-09T05:46:38.871Z,20.40
2023-01-09T05:49:05.669Z,20.40
2023-01-09T05:51:32.546Z,20.40
2023-01-09T05:53:59.812Z,20.50
2023-01-09T05:56:26.692Z,20.50
2023-01-09T05:58:53.475Z,20.50
2023-01-09T06:01:21.754Z,20.50
2023-01-09T06:03:50.347Z,20.50
2023-01-09T06:06:17.235Z,20.50
2023-01-09T06:08:44.040Z,20.50
2023-01-09T06:11:10.864Z,20.40
2023-01-09T06:13:37.693Z,20.40
2023-01-09T06:16:04.890Z,20.40
2023-01-09T06:18:31.795Z,20.30
2023-01-09T06:20:58.648Z,20.30
2023-01-09T06:23:25.501Z,20.30
2023-01-09T06:25:52.290Z,20.30
2023-01-09T06:28:19.141Z,20.40
2023-01-09T06:30:49.729Z,20.40
2023-01-09T06:33:16.588Z,20.40
2023-01-09T06:35:43.585Z,20.50
2023-01-09T06:38:10.475Z,20.50
2023-01-09T06:40:37.245Z,20.50
2023-01-09T06:43:04.379Z,20.60
2023-01-09T06:45:31.251Z,20.60
2023-01-09T06:47:58.141Z,20.70
2023-01-09T06:50:24.951Z,20.70
2023-01-09T06:52:51.830Z,20.70
2023-01-09T06:55:18.905Z,20.70
2023-01-09T06:57:45.842Z,20.70
2023-01-09T07:00:13.038Z,20.70
2023-01-09T07:02:39.870Z,20.60
2023-01-09T07:05:08.585Z,20.60
2023-01-09T07:07:35.407Z,20.60
2023-01-09T07:10:02.241Z,20.60
2023-01-09T07:12:29.666Z,20.60
2023-01-09T07:14:57.721Z,20.60
2023-01-09T07:17:24.785Z,20.60
2023-01-09T07:19:51.716Z,20.60
2023-01-09T07:22:18.927Z,20.60
2023-01-09T07:24:45.884Z,20.60
2023-01-09T07:27:12.841Z,20.70
2023-01-09T07:29:39.660Z,20.70
2023-01-09T07:32:06.911Z,20.70
2023-01-09T07:34:36.804Z,20.70
2023-01-09T07:37:03.726Z,20.70
2023-01-09T07:39:30.555Z,20.70
2023-01-09T07:41:57.445Z,20.70
2023-01-09T07:44:24.395Z,20.70
2023-01-09T07:46:51.248Z,20.70
2023-01-09T07:49:18.058Z,20.70
2023-01-09T07:51:45.764Z,20.60
2023-01-09T07:54:13.496Z,20.60
2023-01-09T07:56:40.863Z,20.60
2023-01-09T07:59:07.936Z,20.60
2023-01-09T08:01:35.031Z,20.60
2023-01-09T08:04:02.028Z,20.60
2023-01-09T08:06:29.316Z,20.60
2023-01-09T08:08:56.208Z,20.60
2023-01-09T08:11:23.221Z,20.70
2023-01-09T08:13:50.133Z,20.70
2023-01-09T08:16:17.046Z,20.70
2023-01-09T08:18:44.109Z,20.80
2023-01-09T08:21:14.352Z,20.80
2023-01-09T08:23:41.305Z,20.80
2023-01-09T08:26:08.213Z,20.80
2023-01-09T08:28:35.092Z,20.80
2023-01-09T08:31:01.969Z,20.80
2023-01-09T08:33:29.353Z,20.70
2023-01-09T08:35:56.418Z,20.70
2023-01-09T08:38:23.308Z,20.70
2023-01-09T08:40:50.129Z,20.70
2023-01-09T08:43:36.055Z,20.70
2023-01-09T08:46:21.480Z,20.70
2023-01-09T08:48:49.424Z,20.60
2023-01-09T08:51:16.351Z,20.60
2023-01-09T08:53:43.215Z,20.60
2023-01-09T08:56:10.998Z,20.60
2023-01-09T08:58:37.860Z,20.60
2023-01-09T09:01:08.158Z,20.60
2023-01-09T09:03:35.015Z,20.60
2023-01-09T09:06:02.611Z,20.60
2023-01-09T09:08:29.730Z,20.60
2023-01-09T09:10:57.681Z,20.60
2023-01-09T09:13:24.511Z,20.50
2023-01-09T09:15:51.450Z,20.50
2023-01-09T09:18:18.288Z,20.40
2023-01-09T09:20:46.585Z,20.40
2023-01-09T09:23:13.449Z,20.40
2023-01-09T09:25:40.281Z,20.40
2023-01-09T09:28:07.556Z,20.40
2023-01-09T09:30:34.892Z,20.40
2023-01-09T09:33:04.604Z,20.40
2023-01-09T09:35:33.688Z,20.40
2023-01-09T09:38:05.004Z,20.40
2023-01-09T09:40:50.565Z,20.50
2023-01-09T09:44:02.093Z,20.50
2023-01-09T09:47:08.739Z,20.60
2023-01-09T09:50:20.052Z,20.70
2023-01-09T09:53:03.461Z,20.70
2023-01-09T09:55:33.651Z,20.70
2023-01-09T09:58:04.361Z,20.80
2023-01-09T10:00:31.521Z,20.80
2023-01-09T10:03:06.470Z,20.90
2023-01-09T10:05:40.616Z,20.90
2023-01-09T10:08:38.172Z,20.90
2023-01-09T10:11:08.706Z,20.90
2023-01-09T10:13:54.285Z,20.90
2023-01-09T10:16:48.982Z,20.90
2023-01-09T10:19:39.489Z,20.90
2023-01-09T10:22:11.804Z,20.90
2023-01-09T10:24:47.762Z,20.90
2023-01-09T10:27:50.744Z,21.00
2023-01-09T10:30:28.325Z,21.00
2023-01-09T10:33:13.106Z,21.00
2023-01-09T10:35:58.637Z,21.00
2023-01-09T10:38:38.908Z,21.10
2023-01-09T10:41:28.971Z,21.10
2023-01-09T10:44:18.818Z,21.20
2023-01-09T10:46:53.279Z,21.20
2023-01-09T10:49:20.713Z,21.30
2023-01-09T10:52:03.184Z,21.30
2023-01-09T10:54:30.198Z,21.40
2023-01-09T10:57:00.464Z,21.40
2023-01-09T10:59:27.389Z,21.50
2023-01-09T11:01:54.751Z,21.50
2023-01-09T11:04:31.431Z,21.50
2023-01-09T11:07:02.907Z,21.60
2023-01-09T11:09:56.764Z,21.50
2023-01-09T11:12:26.131Z,21.50
2023-01-09T11:14:53.358Z,21.50
2023-01-09T11:17:26.853Z,21.50
2023-01-09T11:20:15.302Z,21.50
2023-01-09T11:22:44.667Z,21.60
2023-01-09T11:25:16.872Z,21.60
2023-01-09T11:27:44.064Z,21.60
2023-01-09T11:30:27.632Z,21.60
2023-01-09T11:32:57.034Z,21.70
2023-01-09T11:35:34.409Z,21.70
2023-01-09T11:38:17.034Z,21.80
2023-01-09T11:40:50.377Z,21.80
2023-01-09T11:43:19.768Z,21.90
2023-01-09T11:46:00.970Z,21.90
2023-01-09T11:48:32.269Z,21.90
2023-01-09T11:51:00.502Z,21.90
2023-01-09T11:53:28.102Z,22.00
2023-01-09T11:56:01.778Z,22.00
2023-01-09T11:58:33.331Z,22.00
2023-01-09T12:01:05.263Z,22.10
2023-01-09T12:04:09.888Z,22.10
2023-01-09T12:06:42.461Z,22.10
2023-01-09T12:09:20.975Z,22.00
2023-01-09T12:11:56.802Z,22.00
2023-01-09T12:14:38.645Z,22.00
2023-01-09T12:17:11.392Z,22.00
2023-01-09T12:20:07.018Z,22.00
2023-01-09T12:22:58.617Z,22.00
2023-01-09T12:25:54.320Z,21.90
2023-01-09T12:28:39.600Z,21.90
2023-01-09T12:31:09.290Z,21.90
2023-01-09T12:33:44.984Z,21.90
2023-01-09T12:36:22.504Z,21.80
2023-01-09T12:38:54.758Z,21.90
2023-01-09T12:41:43.175Z,21.90
2023-01-09T12:44:34.127Z,21.90
2023-01-09T12:47:19.022Z,21.90
2023-01-09T12:50:12.603Z,22.00
2023-01-09T12:52:44.087Z,22.00
2023-01-09T12:55:27.126Z,22.00
2023-01-09T12:57:57.874Z,22.00
2023-01-09T13:00:35.673Z,22.00
2023-01-09T13:03:15.052Z,21.90
2023-01-09T13:05:46.251Z,21.90
2023-01-09T13:08:21.718Z,21.90
2023-01-09T13:10:51.331Z,21.90
2023-01-09T13:13:45.748Z,22.00
2023-01-09T13:16:18.698Z,22.00
2023-01-09T13:18:56.458Z,22.00
2023-01-09T13:21:23.694Z,22.00
2023-01-09T13:24:07.375Z,22.10
2023-01-09T13:26:44.003Z,22.10
2023-01-09T13:29:21.662Z,22.10
2023-01-09T13:32:16.042Z,22.10
2023-01-09T13:34:47.559Z,22.10
2023-01-09T13:37:26.431Z,22.20
2023-01-09T13:40:26.512Z,22.20
2023-01-09T13:43:04.071Z,22.30
2023-01-09T13:45:34.103Z,22.20
2023-01-09T13:48:10.927Z,22.30
2023-01-09T13:50:39.314Z,22.20
2023-01-09T13:53:18.439Z,22.20
2023-01-09T13:56:06.698Z,22.20
2023-01-09T13:58:39.577Z,22.20
2023-01-09T14:01:25.026Z,22.10
2023-01-09T14:04:10.128Z,22.10
2023-01-09T14:06:37.494Z,22.00
2023-01-09T14:09:21.792Z,22.00
2023-01-09T14:12:01.280Z,22.00
2023-01-09T14:14:31.340Z,22.00
2023-01-09T14:16:59.221Z,22.00
2023-01-09T14:19:40.181Z,22.00
2023-01-09T14:22:08.044Z,22.00
2023-01-09T14:24:46.390Z,21.90
2023-01-09T14:27:50.770Z,22.00
2023-01-09T14:31:03.021Z,21.90
2023-01-09T14:33:32.630Z,21.90
2023-01-09T14:36:17.075Z,21.90
2023-01-09T14:38:53.917Z,21.80
2023-01-09T14:42:00.670Z,21.80
2023-01-09T14:44:32.797Z,21.80
2023-01-09T14:47:06.923Z,21.70
2023-01-09T14:49:39.265Z,21.70
2023-01-09T14:52:28.221Z,21.70
2023-01-09T14:55:01.239Z,21.60
2023-01-09T14:57:30.600Z,21.60
2023-01-09T15:00:02.203Z,21.60
2023-01-09T15:02:33.700Z,21.60
2023-01-09T15:05:09.239Z,21.60
2023-01-09T15:07:44.199Z,21.70
2023-01-09T15:10:21.765Z,21.70
2023-01-09T15:12:51.793Z,21.70
2023-01-09T15:15:19.955Z,21.70
2023-01-09T15:17:56.256Z,21.70
2023-01-09T15:20:29.940Z,21.70
2023-01-09T15:22:58.188Z,21.80
2023-01-09T15:25:37.737Z,21.80
2023-01-09T15:28:23.122Z,21.80
2023-01-09T15:31:17.733Z,21.80
2023-01-09T15:33:46.389Z,21.80
2023-01-09T15:36:18.331Z,21.70
2023-01-09T15:38:46.477Z,21.70
2023-01-09T15:41:39.773Z,21.60
2023-01-09T15:44:13.192Z,21.60
2023-01-09T15:46:40.907Z,21.60
2023-01-09T15:49:12.468Z,21.70
2023-01-09T15:51:41.891Z,21.70
2023-01-09T15:54:17.628Z,21.70
2023-01-09T15:56:46.119Z,21.80
2023-01-09T15:59:31.028Z,21.80
2023-01-09T16:02:20.649Z,21.90
2023-01-09T16:04:48.778Z,21.90
2023-01-09T16:07:18.522Z,21.90
2023-01-09T16:09:52.622Z,21.90
2023-01-09T16:12:28.197Z,21.90
2023-01-09T16:15:01.142Z,21.90
2023-01-09T16:17:29.909Z,21.90
2023-01-09T16:20:14.193Z,21.90
2023-01-09T16:22:55.656Z,21.90
2023-01-09T16:25:40.462Z,21.90
2023-01-09T16:28:30.487Z,21.90
2023-01-09T16:31:01.797Z,22.00
2023-01-09T16:33:30.666Z,22.00
2023-01-09T16:35:58.703Z,22.00
2023-01-09T16:38:28.594Z,22.00
2023-01-09T16:41:25.551Z,22.00
2023-01-09T16:43:52.717Z,22.10
2023-01-09T16:46:21.192Z,22.10
2023-01-09T16:48:48.443Z,22.10
2023-01-09T16:51:17.701Z,22.00
2023-01-09T16:53:45.012Z,22.10
2023-01-09T16:56:18.454Z,22.10
2023-01-09T16:58:46.283Z,22.10
2023-01-09T17:01:14.856Z,22.10
2023-01-09T17:03:43.942Z,22.10
2023-01-09T17:06:41.131Z,22.10
2023-01-09T17:09:16.706Z,22.10
2023-01-09T17:11:43.983Z,22.00
2023-01-09T17:14:12.878Z,22.00
2023-01-09T17:16:43.181Z,22.00
2023-01-09T17:19:22.666Z,22.00
2023-01-09T17:21:49.510Z,22.00
2023-01-09T17:24:34.826Z,22.00
2023-01-09T17:27:21.240Z,22.00
2023-01-09T17:29:48.397Z,22.10
2023-01-09T17:32:17.231Z,22.10
2023-01-09T17:34:44.202Z,22.10
2023-01-09T17:37:15.925Z,22.10
2023-01-09T17:39:43.985Z,22.10
2023-01-09T17:42:11.012Z,22.10
2023-01-09T17:44:38.258Z,22.10
2023-01-09T17:47:06.146Z,22.10
2023-01-09T17:49:33.209Z,22.10
2023-01-09T17:52:00.130Z,22.10
2023-01-09T17:54:26.963Z,22.00
2023-01-09T17:56:54.391Z,22.00
2023-01-09T17:59:21.330Z,22.00
2023-01-09T18:01:48.453Z,22.00
2023-01-09T18:04:15.400Z,22.00
2023-01-09T18:06:42.537Z,21.90
2023-01-09T18:09:15.168Z,22.00
2023-01-09T18:11:42.092Z,22.00
2023-01-09T18:14:09.310Z,22.00
2023-01-09T18:16:36.296Z,22.00
2023-01-09T18:19:03.761Z,22.00
2023-01-09T18:21:31.254Z,21.90
2023-01-09T18:23:59.279Z,22.00
2023-01-09T18:26:26.078Z,21.90
2023-01-09T18:28:56.541Z,21.90
2023-01-09T18:31:25.507Z,21.90
2023-01-09T18:33:53.904Z,21.90
2023-01-09T18:36:30.027Z,21.90
2023-01-09T18:38:59.294Z,21.90
2023-01-09T18:41:26.859Z,21.90
2023-01-09T18:43:55.701Z,21.80
2023-01-09T18:46:25.720Z,21.80
2023-01-09T18:48:58.155Z,21.80
2023-01-09T18:51:26.768Z,21.80
2023-01-09T18:53:55.229Z,21.80
2023-01-09T18:56:23.266Z,21.80
2023-01-09T18:58:53.634Z,21.80
2023-01-09T19:01:20.521Z,21.80
2023-01-09T19:03:47.417Z,21.80
2023-01-09T19:06:14.429Z,21.90
2023-01-09T19:08:41.605Z,21.90
2023-01-09T19:11:08.414Z,21.90
2023-01-09T19:13:36.883Z,21.90
2023-01-09T19:16:05.134Z,21.90
2023-01-09T19:18:37.715Z,21.90
2023-01-09T19:21:16.121Z,21.90
2023-01-09T19:23:44.358Z,21.90
2023-01-09T19:26:20.169Z,21.90
2023-01-09T19:28:48.020Z,21.90
2023-01-09T19:31:15.481Z,21.90
2023-01-09T19:33:42.950Z,21.90
2023-01-09T19:36:10.343Z,21.90
2023-01-09T19:38:38.314Z,21.90
2023-01-09T19:41:13.001Z,21.90
2023-01-09T19:43:41.053Z,21.90
2023-01-09T19:46:10.188Z,21.80
2023-01-09T19:48:37.382Z,21.80
2023-01-09T19:51:05.995Z,21.80
2023-01-09T19:53:34.865Z,21.70
2023-01-09T19:56:15.214Z,21.70
2023-01-09T19:58:47.265Z,21.70
2023-01-09T20:01:19.391Z,21.70
2023-01-09T20:03:47.979Z,21.60
2023-01-09T20:06:22.325Z,21.60
2023-01-09T20:08:53.849Z,21.60
2023-01-09T20:11:22.251Z,21.60
2023-01-09T20:13:49.414Z,21.50
2023-01-09T20:16:20.256Z,21.50
2023-01-09T20:18:47.369Z,21.50
2023-01-09T20:23:55.246Z,21.50
2023-01-09T20:26:23.011Z,21.50
2023-01-09T20:28:50.245Z,21.50
2023-01-09T20:31:19.847Z,21.40
2023-01-09T20:33:48.170Z,21.40
2023-01-09T20:36:15.288Z,21.40
2023-01-09T20:38:43.195Z,21.30
2023-01-09T20:41:22.372Z,21.30
2023-01-09T20:43:55.797Z,21.30
2023-01-09T20:46:24.777Z,21.30
2023-01-09T20:48:51.587Z,21.20
2023-01-09T20:51:18.677Z,21.20
2023-01-09T20:53:47.089Z,21.20
2023-01-09T20:56:14.408Z,21.20
2023-01-09T20:58:42.355Z,21.20
2023-01-09T21:01:13.387Z,21.20
2023-01-09T21:03:41.119Z,21.20
2023-01-09T21:06:10.263Z,21.10
2023-01-09T21:08:37.532Z,21.10
2023-01-09T21:11:05.252Z,21.10
2023-01-09T21:13:32.208Z,21.00
2023-01-09T21:16:04.253Z,21.00
2023-01-09T21:18:31.444Z,21.00
2023-01-09T21:21:03.349Z,20.90
2023-01-09T21:23:30.331Z,20.90
2023-01-09T21:25:57.129Z,20.90
2023-01-09T21:28:24.722Z,20.90
2023-01-09T21:30:51.615Z,20.90
2023-01-09T21:33:22.161Z,20.80
2023-01-09T21:35:56.798Z,20.80
2023-01-09T21:38:25.145Z,20.80
2023-01-09T21:40:53.597Z,20.80
2023-01-09T21:43:47.522Z,20.80
2023-01-09T21:46:34.410Z,20.80
2023-01-09T21:49:03.816Z,20.80
2023-01-09T21:51:30.604Z,20.80
2023-01-09T21:53:57.369Z,20.80
2023-01-09T21:56:24.226Z,20.80
2023-01-09T21:58:51.025Z,20.70
2023-01-09T22:01:17.862Z,20.70
2023-01-09T22:03:44.928Z,20.70
2023-01-09T22:06:11.759Z,20.70
2023-01-09T22:08:38.530Z,20.70
2023-01-09T22:11:05.554Z,20.60
2023-01-09T22:13:32.358Z,20.60
2023-01-09T22:16:07.304Z,20.60
2023-01-09T22:18:35.280Z,20.60
2023-01-09T22:21:03.051Z,20.60
2023-01-09T22:23:30.227Z,20.60
2023-01-09T22:25:57.325Z,20.60
2023-01-09T22:28:24.388Z,20.60
2023-01-09T22:30:51.184Z,20.60
2023-01-09T22:33:18.868Z,20.60
2023-01-09T22:35:45.683Z,20.70
2023-01-09T22:38:12.892Z,20.70
2023-01-09T22:40:40.943Z,20.70
2023-01-09T22:43:08.344Z,20.70
2023-01-09T22:45:35.138Z,20.70
2023-01-09T22:48:01.967Z,20.70
2023-01-09T22:50:29.035Z,20.70
2023-01-09T22:52:55.930Z,20.70
2023-01-09T22:55:22.698Z,20.70
2023-01-09T22:57:49.487Z,20.70
2023-01-09T23:00:16.646Z,20.70
2023-01-09T23:02:43.614Z,20.70
2023-01-09T23:05:10.707Z,20.70
2023-01-09T23:07:37.482Z,20.80
2023-01-09T23:10:05.675Z,20.80
2023-01-09T23:12:33.240Z,20.80
2023-01-09T23:15:00.401Z,20.80
2023-01-09T23:17:27.216Z,20.80
2023-01-09T23:19:54.034Z,20.70
2023-01-09T23:22:20.965Z,20.70
2023-01-09T23:24:47.734Z,20.70
2023-01-09T23:27:14.578Z,20.70
2023-01-09T23:29:41.329Z,20.60
2023-01-09T23:32:08.145Z,20.60
2023-01-09T23:34:35.145Z,20.60
2023-01-09T23:37:03.949Z,20.60
2023-01-09T23:39:30.794Z,20.60
2023-01-09T23:42:16.042Z,20.60
2023-01-09T23:44:42.869Z,20.60
2023-01-09T23:47:10.144Z,20.60
2023-01-09T23:49:37.099Z,20.60
2023-01-09T23:52:06.036Z,20.60
2023-01-09T23:54:32.962Z,20.60
2023-01-09T23:56:59.791Z,20.60
2023-01-09T23:59:26.623Z,20.60
